sensor_id;sensor_type;location;lat;lon;timestamp;pressure;altitude;pressure_sealevel;temperature;humidity
74913;BME280;63878;55.624;37.304;2024-01-11T00:09:02;97188.34;;;-9.10;77.08
74913;BME280;63878;55.624;37.304;2024-01-11T00:19:02;97147.03;;;-8.95;78.35
74913;BME280;63878;55.624;37.304;2024-01-11T00:29:03;97104.66;;;-8.92;78.77
74913;BME280;63878;55.624;37.304;2024-01-11T00:39:04;97080.66;;;-9.02;79.92
74913;BME280;63878;55.624;37.304;2024-01-11T00:49:04;97043.22;;;-8.97;79.94
74913;BME280;63878;55.624;37.304;2024-01-11T00:59:05;97009.66;;;-8.85;80.41
74913;BME280;63878;55.624;37.304;2024-01-11T01:09:05;96994.94;;;-8.78;81.10
74913;BME280;63878;55.624;37.304;2024-01-11T01:19:06;96972.16;;;-8.63;81.42
74913;BME280;63878;55.624;37.304;2024-01-11T01:29:07;96941.28;;;-8.40;81.58
74913;BME280;63878;55.624;37.304;2024-01-11T01:39:07;96914.88;;;-8.51;82.74
74913;BME280;63878;55.624;37.304;2024-01-11T01:49:10;96885.81;;;-8.30;83.39
74913;BME280;63878;55.624;37.304;2024-01-11T01:59:11;96854.75;;;-8.20;84.73
74913;BME280;63878;55.624;37.304;2024-01-11T02:09:13;96833.66;;;-7.92;85.00
74913;BME280;63878;55.624;37.304;2024-01-11T02:19:14;96804.09;;;-7.79;86.74
74913;BME280;63878;55.624;37.304;2024-01-11T02:29:17;96790.06;;;-7.57;87.74
74913;BME280;63878;55.624;37.304;2024-01-11T02:39:19;96766.69;;;-7.35;88.04
74913;BME280;63878;55.624;37.304;2024-01-11T02:49:19;96734.78;;;-7.13;88.53
74913;BME280;63878;55.624;37.304;2024-01-11T02:59:20;96715.19;;;-6.98;89.29
74913;BME280;63878;55.624;37.304;2024-01-11T03:09:20;96692.84;;;-6.81;89.82
74913;BME280;63878;55.624;37.304;2024-01-11T03:19:21;96684.13;;;-6.64;90.57
74913;BME280;63878;55.624;37.304;2024-01-11T03:29:22;96655.84;;;-6.47;91.31
74913;BME280;63878;55.624;37.304;2024-01-11T03:39:25;96639.13;;;-6.26;92.23
74913;BME280;63878;55.624;37.304;2024-01-11T03:49:26;96630.34;;;-6.10;92.13
74913;BME280;63878;55.624;37.304;2024-01-11T03:59:26;96613.72;;;-6.03;92.29
74913;BME280;63878;55.624;37.304;2024-01-11T04:09:27;96597.09;;;-5.96;92.47
74913;BME280;63878;55.624;37.304;2024-01-11T04:19:27;96589.28;;;-5.82;92.52
74913;BME280;63878;55.624;37.304;2024-01-11T04:29:27;96583.44;;;-5.71;92.95
74913;BME280;63878;55.624;37.304;2024-01-11T04:39:28;96565.91;;;-5.52;92.81
74913;BME280;63878;55.624;37.304;2024-01-11T04:49:29;96565.88;;;-5.40;92.95
74913;BME280;63878;55.624;37.304;2024-01-11T04:59:30;96546.78;;;-5.23;92.58
74913;BME280;63878;55.624;37.304;2024-01-11T05:09:30;96531.75;;;-5.15;92.29
74913;BME280;63878;55.624;37.304;2024-01-11T05:19:30;96531.78;;;-4.93;91.74
74913;BME280;63878;55.624;37.304;2024-01-11T05:29:31;96516.22;;;-4.90;91.40
74913;BME280;63878;55.624;37.304;2024-01-11T05:39:31;96510.06;;;-4.88;90.96
74913;BME280;63878;55.624;37.304;2024-01-11T05:49:32;96493.41;;;-4.81;91.22
74913;BME280;63878;55.624;37.304;2024-01-11T05:59:33;96494.78;;;-4.77;91.13
74913;BME280;63878;55.624;37.304;2024-01-11T06:09:33;96484.09;;;-4.71;90.93
74913;BME280;63878;55.624;37.304;2024-01-11T06:19:34;96468.56;;;-4.68;90.99
74913;BME280;63878;55.624;37.304;2024-01-11T06:29:34;96467.53;;;-4.65;90.85
74913;BME280;63878;55.624;37.304;2024-01-11T06:39:35;96446.97;;;-4.53;90.50
74913;BME280;63878;55.624;37.304;2024-01-11T06:49:38;96439.75;;;-4.48;90.67
74913;BME280;63878;55.624;37.304;2024-01-11T06:59:39;96445.09;;;-4.40;90.46
74913;BME280;63878;55.624;37.304;2024-01-11T07:09:39;96424.66;;;-4.40;90.08
74913;BME280;63878;55.624;37.304;2024-01-11T07:19:40;96421.47;;;-4.21;89.95
74913;BME280;63878;55.624;37.304;2024-01-11T07:29:40;96421.94;;;-4.27;89.25
74913;BME280;63878;55.624;37.304;2024-01-11T07:39:41;96417.50;;;-4.14;88.60
74913;BME280;63878;55.624;37.304;2024-01-11T07:49:41;96402.00;;;-4.22;88.11
74913;BME280;63878;55.624;37.304;2024-01-11T07:59:42;96380.88;;;-4.04;87.73
74913;BME280;63878;55.624;37.304;2024-01-11T08:09:42;96377.78;;;-4.07;87.07
74913;BME280;63878;55.624;37.304;2024-01-11T08:19:43;96367.75;;;-3.99;86.54
74913;BME280;63878;55.624;37.304;2024-01-11T08:29:44;96362.34;;;-4.06;87.44
74913;BME280;63878;55.624;37.304;2024-01-11T08:39:44;96349.69;;;-4.07;87.42
74913;BME280;63878;55.624;37.304;2024-01-11T08:49:45;96345.09;;;-3.92;87.52
74913;BME280;63878;55.624;37.304;2024-01-11T08:59:45;96323.38;;;-3.78;87.44
74913;BME280;63878;55.624;37.304;2024-01-11T09:09:45;96318.16;;;-3.97;87.62
74913;BME280;63878;55.624;37.304;2024-01-11T09:19:46;96383.72;;;-4.07;88.00
74913;BME280;63878;55.624;37.304;2024-01-11T09:29:46;96433.09;;;-4.71;89.75
74913;BME280;63878;55.624;37.304;2024-01-11T09:39:47;96425.59;;;-5.38;90.82
74913;BME280;63878;55.624;37.304;2024-01-11T09:49:48;96437.88;;;-5.21;91.06
74913;BME280;63878;55.624;37.304;2024-01-11T09:59:50;96437.28;;;-5.25;88.43
74913;BME280;63878;55.624;37.304;2024-01-11T10:09:54;96454.63;;;-5.63;82.98
74913;BME280;63878;55.624;37.304;2024-01-11T10:19:55;96484.38;;;-5.98;76.19
74913;BME280;63878;55.624;37.304;2024-01-11T10:29:55;96519.59;;;-5.57;78.30
74913;BME280;63878;55.624;37.304;2024-01-11T10:39:57;96540.84;;;-6.16;72.70
74913;BME280;63878;55.624;37.304;2024-01-11T10:50:00;96573.44;;;-6.82;69.89
74913;BME280;63878;55.624;37.304;2024-01-11T11:00:01;96602.41;;;-7.10;67.75
74913;BME280;63878;55.624;37.304;2024-01-11T11:10:03;96640.47;;;-6.71;71.50
74913;BME280;63878;55.624;37.304;2024-01-11T11:20:06;96651.13;;;-6.16;64.25
74913;BME280;63878;55.624;37.304;2024-01-11T11:30:08;96666.66;;;-6.08;63.80
74913;BME280;63878;55.624;37.304;2024-01-11T11:40:09;96718.91;;;-6.02;61.21
74913;BME280;63878;55.624;37.304;2024-01-11T11:50:11;96738.69;;;-6.18;61.93
74913;BME280;63878;55.624;37.304;2024-01-11T12:00:12;96752.03;;;-6.79;60.76
74913;BME280;63878;55.624;37.304;2024-01-11T12:10:13;96781.25;;;-7.51;68.66
74913;BME280;63878;55.624;37.304;2024-01-11T12:20:14;96837.31;;;-7.68;65.02
74913;BME280;63878;55.624;37.304;2024-01-11T12:30:17;96834.59;;;-8.66;59.21
74913;BME280;63878;55.624;37.304;2024-01-11T12:40:17;96865.84;;;-8.07;65.95
74913;BME280;63878;55.624;37.304;2024-01-11T12:50:19;96891.00;;;-8.47;60.34
74913;BME280;63878;55.624;37.304;2024-01-11T13:00:20;96915.31;;;-8.29;58.03
74913;BME280;63878;55.624;37.304;2024-01-11T13:10:20;96935.66;;;-8.15;63.12
74913;BME280;63878;55.624;37.304;2024-01-11T13:20:21;96936.06;;;-8.52;54.57
74913;BME280;63878;55.624;37.304;2024-01-11T13:30:22;96956.84;;;-8.92;51.74
74913;BME280;63878;55.624;37.304;2024-01-11T13:40:22;96957.91;;;-8.96;53.90
74913;BME280;63878;55.624;37.304;2024-01-11T13:50:24;96966.28;;;-8.79;53.72
74913;BME280;63878;55.624;37.304;2024-01-11T14:00:25;96978.84;;;-8.62;54.47
74913;BME280;63878;55.624;37.304;2024-01-11T14:10:25;96973.94;;;-8.96;54.50
74913;BME280;63878;55.624;37.304;2024-01-11T14:20:26;96999.28;;;-9.28;56.57
74913;BME280;63878;55.624;37.304;2024-01-11T14:30:27;97004.34;;;-9.28;61.13
74913;BME280;63878;55.624;37.304;2024-01-11T14:40:27;97017.63;;;-9.57;57.75
74913;BME280;63878;55.624;37.304;2024-01-11T14:50:28;97030.59;;;-9.63;57.62
74913;BME280;63878;55.624;37.304;2024-01-11T15:00:28;97038.91;;;-9.27;57.99
74913;BME280;63878;55.624;37.304;2024-01-11T15:10:29;97061.69;;;-9.61;60.85
74913;BME280;63878;55.624;37.304;2024-01-11T15:20:30;97065.00;;;-9.59;60.61
74913;BME280;63878;55.624;37.304;2024-01-11T15:30:31;97088.00;;;-9.47;62.89
74913;BME280;63878;55.624;37.304;2024-01-11T15:40:31;97095.75;;;-9.84;59.94
74913;BME280;63878;55.624;37.304;2024-01-11T15:50:32;97111.06;;;-9.87;62.52
74913;BME280;63878;55.624;37.304;2024-01-11T16:00:32;97126.16;;;-10.21;59.19
74913;BME280;63878;55.624;37.304;2024-01-11T16:10:33;97129.22;;;-10.51;60.08
74913;BME280;63878;55.624;37.304;2024-01-11T16:20:33;97135.84;;;-10.30;60.38
74913;BME280;63878;55.624;37.304;2024-01-11T16:30:34;97176.00;;;-10.61;60.45
74913;BME280;63878;55.624;37.304;2024-01-11T16:40:35;97154.16;;;-10.44;63.36
74913;BME280;63878;55.624;37.304;2024-01-11T16:50:36;97188.41;;;-10.37;63.00
74913;BME280;63878;55.624;37.304;2024-01-11T17:00:37;97191.97;;;-10.22;61.58
74913;BME280;63878;55.624;37.304;2024-01-11T17:10:37;97208.00;;;-10.42;60.01
74913;BME280;63878;55.624;37.304;2024-01-11T17:20:38;97213.41;;;-10.69;58.79
74913;BME280;63878;55.624;37.304;2024-01-11T17:30:38;97232.28;;;-10.78;57.72
74913;BME280;63878;55.624;37.304;2024-01-11T17:40:39;97238.34;;;-10.82;57.77
74913;BME280;63878;55.624;37.304;2024-01-11T17:50:39;97262.84;;;-10.84;58.44
74913;BME280;63878;55.624;37.304;2024-01-11T18:00:40;97287.34;;;-11.27;62.13
74913;BME280;63878;55.624;37.304;2024-01-11T18:10:40;97281.75;;;-11.14;61.30
74913;BME280;63878;55.624;37.304;2024-01-11T18:20:41;97311.13;;;-11.11;60.55
74913;BME280;63878;55.624;37.304;2024-01-11T18:30:42;97350.28;;;-11.23;57.19
74913;BME280;63878;55.624;37.304;2024-01-11T18:40:42;97463.78;;;-10.54;60.68
74913;BME280;63878;55.624;37.304;2024-01-11T18:50:43;97396.28;;;-11.15;59.06
74913;BME280;63878;55.624;37.304;2024-01-11T19:00:44;97399.03;;;-10.56;56.91
74913;BME280;63878;55.624;37.304;2024-01-11T19:10:45;97450.13;;;-10.93;54.65
74913;BME280;63878;55.624;37.304;2024-01-11T19:20:46;97463.06;;;-11.00;52.66
74913;BME280;63878;55.624;37.304;2024-01-11T19:30:47;97456.63;;;-11.55;53.79
74913;BME280;63878;55.624;37.304;2024-01-11T19:40:48;97459.72;;;-11.96;55.02
74913;BME280;63878;55.624;37.304;2024-01-11T19:50:48;97479.59;;;-12.63;57.53
74913;BME280;63878;55.624;37.304;2024-01-11T20:00:49;97480.03;;;-12.78;58.25
74913;BME280;63878;55.624;37.304;2024-01-11T20:10:49;97498.53;;;-12.79;60.62
74913;BME280;63878;55.624;37.304;2024-01-11T20:20:50;97506.34;;;-12.59;62.74
74913;BME280;63878;55.624;37.304;2024-01-11T20:30:50;97519.94;;;-12.65;64.90
74913;BME280;63878;55.624;37.304;2024-01-11T20:40:51;97530.88;;;-12.66;63.44
74913;BME280;63878;55.624;37.304;2024-01-11T20:50:51;97539.94;;;-12.60;69.54
74913;BME280;63878;55.624;37.304;2024-01-11T21:00:52;97547.03;;;-13.02;71.98
74913;BME280;63878;55.624;37.304;2024-01-11T21:10:52;97571.66;;;-12.53;74.47
74913;BME280;63878;55.624;37.304;2024-01-11T21:20:54;97585.22;;;-12.30;73.56
74913;BME280;63878;55.624;37.304;2024-01-11T21:30:54;97591.91;;;-12.58;71.85
74913;BME280;63878;55.624;37.304;2024-01-11T21:40:55;97598.50;;;-12.81;63.29
74913;BME280;63878;55.624;37.304;2024-01-11T21:50:55;97600.91;;;-13.39;59.36
74913;BME280;63878;55.624;37.304;2024-01-11T22:00:56;97641.19;;;-13.41;57.75
74913;BME280;63878;55.624;37.304;2024-01-11T22:10:58;97657.22;;;-13.45;55.85
74913;BME280;63878;55.624;37.304;2024-01-11T22:20:59;97672.09;;;-14.07;55.35
74913;BME280;63878;55.624;37.304;2024-01-11T22:30:59;97685.44;;;-14.04;53.87
74913;BME280;63878;55.624;37.304;2024-01-11T22:41:00;97693.78;;;-13.65;55.43
74913;BME280;63878;55.624;37.304;2024-01-11T22:51:01;97727.72;;;-14.22;52.70
74913;BME280;63878;55.624;37.304;2024-01-11T23:01:02;97746.00;;;-14.14;52.16
74913;BME280;63878;55.624;37.304;2024-01-11T23:11:03;97758.63;;;-14.19;52.31
74913;BME280;63878;55.624;37.304;2024-01-11T23:21:03;97793.97;;;-14.26;51.54
74913;BME280;63878;55.624;37.304;2024-01-11T23:31:04;97795.03;;;-14.39;51.21
74913;BME280;63878;55.624;37.304;2024-01-11T23:41:06;97834.16;;;-14.73;51.01
74913;BME280;63878;55.624;37.304;2024-01-11T23:51:07;97820.31;;;-14.48;50.10
